createdAt,value
2023-08-15T00:00:00.608Z,68.52
2023-08-15T00:01:03.530Z,68.31
2023-08-15T00:02:06.316Z,68.24
2023-08-15T00:03:08.973Z,68.26
2023-08-15T00:04:11.644Z,68.50
2023-08-15T00:05:14.401Z,68.70
2023-08-15T00:06:18.559Z,68.63
2023-08-15T00:07:21.290Z,68.70
2023-08-15T00:08:24.107Z,69.02
2023-08-15T00:09:26.931Z,69.05
2023-08-15T00:10:29.520Z,68.97
2023-08-15T00:11:32.138Z,69.03
2023-08-15T00:12:34.709Z,69.19
2023-08-15T00:13:37.398Z,69.16
2023-08-15T00:14:40.029Z,69.34
2023-08-15T00:15:42.741Z,69.29
2023-08-15T00:16:45.400Z,69.29
2023-08-15T00:17:48.053Z,69.57
2023-08-15T00:18:50.854Z,69.56
2023-08-15T00:19:53.441Z,69.46
2023-08-15T00:20:56.052Z,69.60
2023-08-15T00:21:58.698Z,69.38
2023-08-15T00:23:01.537Z,69.45
2023-08-15T00:24:04.423Z,69.46
2023-08-15T00:25:07.254Z,69.62
2023-08-15T00:26:09.961Z,69.74
2023-08-15T00:27:12.580Z,69.68
2023-08-15T00:28:15.200Z,69.62
2023-08-15T00:29:17.788Z,69.68
2023-08-15T00:30:20.555Z,69.81
2023-08-15T00:31:23.182Z,69.73
2023-08-15T00:32:25.805Z,70.01
2023-08-15T00:33:28.397Z,70.17
2023-08-15T00:34:31.040Z,70.12
2023-08-15T00:35:34.201Z,70.33
2023-08-15T00:36:37.030Z,70.46
2023-08-15T00:37:39.689Z,70.57
2023-08-15T00:38:45.093Z,70.71
2023-08-15T00:39:47.742Z,70.47
2023-08-15T00:40:50.358Z,70.65
2023-08-15T00:41:52.947Z,70.85
2023-08-15T00:42:55.574Z,71.16
2023-08-15T00:43:59.573Z,71.28
2023-08-15T00:45:02.308Z,71.31
2023-08-15T00:46:07.512Z,71.33
2023-08-15T00:47:10.310Z,71.29
2023-08-15T00:48:13.421Z,71.31
2023-08-15T00:49:16.079Z,71.52
2023-08-15T00:50:18.953Z,71.66
2023-08-15T00:51:21.714Z,71.73
2023-08-15T00:52:24.405Z,71.73
2023-08-15T00:53:28.943Z,71.54
2023-08-15T00:54:32.344Z,71.46
2023-08-15T00:55:35.220Z,71.53
2023-08-15T00:56:37.853Z,71.59
2023-08-15T00:57:40.448Z,71.69
2023-08-15T00:58:43.605Z,71.78
2023-08-15T00:59:46.562Z,71.93
2023-08-15T01:00:49.236Z,71.95
2023-08-15T01:01:51.963Z,72.00
2023-08-15T01:02:55.017Z,72.16
2023-08-15T01:03:58.004Z,72.27
2023-08-15T01:05:00.699Z,72.38
2023-08-15T01:06:03.319Z,72.49
2023-08-15T01:07:06.189Z,72.60
2023-08-15T01:08:08.833Z,72.60
2023-08-15T01:09:11.488Z,72.67
2023-08-15T01:10:14.119Z,72.77
2023-08-15T01:11:16.889Z,72.94
2023-08-15T01:12:32.185Z,72.95
2023-08-15T01:13:40.701Z,73.12
2023-08-15T01:14:51.218Z,73.00
2023-08-15T01:15:53.970Z,72.91
2023-08-15T01:16:58.138Z,73.03
2023-08-15T01:18:09.657Z,73.11
2023-08-15T01:19:27.360Z,73.07
2023-08-15T01:20:33.748Z,73.08
2023-08-15T01:21:41.028Z,73.22
2023-08-15T01:22:45.900Z,73.25
2023-08-15T01:23:48.745Z,73.24
2023-08-15T01:24:51.908Z,73.39
2023-08-15T01:25:57.647Z,73.47
2023-08-15T01:27:00.229Z,73.51
2023-08-15T01:28:03.854Z,73.54
2023-08-15T01:29:06.513Z,73.61
2023-08-15T01:30:09.550Z,73.57
2023-08-15T01:31:15.194Z,73.60
2023-08-15T01:32:49.677Z,73.68
2023-08-15T01:34:03.123Z,73.73
2023-08-15T01:35:42.665Z,73.80
2023-08-15T01:36:48.185Z,74.05
2023-08-15T01:37:57.037Z,74.05
2023-08-15T01:39:05.160Z,74.05
2023-08-15T01:40:11.293Z,74.14
2023-08-15T01:41:16.774Z,74.17
2023-08-15T01:42:22.951Z,74.43
2023-08-15T01:43:26.156Z,74.46
2023-08-15T01:44:30.832Z,74.48
2023-08-15T01:45:34.798Z,74.34
2023-08-15T01:46:37.615Z,74.41
2023-08-15T01:47:40.280Z,74.54
2023-08-15T01:48:43.698Z,74.51
2023-08-15T01:49:46.322Z,74.57
2023-08-15T01:50:48.911Z,74.59
2023-08-15T01:51:52.116Z,74.60
2023-08-15T01:52:55.041Z,74.66
2023-08-15T01:53:57.650Z,74.72
2023-08-15T01:55:00.281Z,74.81
2023-08-15T01:56:03.110Z,74.75
2023-08-15T01:57:05.713Z,74.75
2023-08-15T01:58:08.377Z,74.80
2023-08-15T01:59:52.161Z,74.86
2023-08-15T02:00:54.791Z,74.90
2023-08-15T02:01:57.463Z,74.92
2023-08-15T02:03:00.297Z,74.93
2023-08-15T02:04:02.982Z,74.94
2023-08-15T02:05:06.108Z,74.94
2023-08-15T02:06:09.357Z,75.13
2023-08-15T02:07:12.035Z,75.26
2023-08-15T02:08:14.635Z,75.27
2023-08-15T02:09:17.937Z,75.37
2023-08-15T02:10:20.584Z,75.48
2023-08-15T02:11:23.192Z,75.42
2023-08-15T02:12:25.794Z,75.55
2023-08-15T02:13:31.922Z,75.64
2023-08-15T02:14:34.608Z,75.79
2023-08-15T02:15:37.264Z,75.89
2023-08-15T02:16:39.964Z,76.01
2023-08-15T02:17:42.609Z,76.07
2023-08-15T02:18:45.276Z,76.11
2023-08-15T02:19:47.964Z,76.13
2023-08-15T02:20:50.614Z,76.20
2023-08-15T02:21:53.228Z,76.23
2023-08-15T02:22:55.803Z,76.25
2023-08-15T02:23:58.418Z,76.29
2023-08-15T02:25:01.128Z,76.33
2023-08-15T02:26:04.382Z,76.49
2023-08-15T02:27:07.046Z,76.43
2023-08-15T02:28:09.862Z,76.38
2023-08-15T02:29:14.450Z,76.35
2023-08-15T02:30:17.131Z,76.39
2023-08-15T02:31:19.806Z,76.34
2023-08-15T02:32:22.504Z,76.30
2023-08-15T02:33:25.202Z,76.37
2023-08-15T02:34:27.832Z,76.42
2023-08-15T02:35:30.456Z,76.47
2023-08-15T02:36:33.046Z,76.50
2023-08-15T02:37:35.859Z,76.49
2023-08-15T02:38:38.500Z,76.45
2023-08-15T02:39:41.108Z,76.44
2023-08-15T02:40:44.230Z,76.42
2023-08-15T02:41:46.892Z,76.43
2023-08-15T02:42:49.533Z,76.47
2023-08-15T02:43:52.156Z,76.54
2023-08-15T02:44:55.589Z,76.55
2023-08-15T02:45:58.631Z,76.60
2023-08-15T02:47:01.268Z,76.71
2023-08-15T02:48:04.196Z,76.78
2023-08-15T02:49:07.156Z,76.80
2023-08-15T02:50:09.979Z,76.88
2023-08-15T02:51:12.593Z,76.97
2023-08-15T02:52:15.239Z,76.92
2023-08-15T02:53:17.879Z,77.02
2023-08-15T02:54:20.478Z,77.06
2023-08-15T02:55:23.077Z,77.01
2023-08-15T02:56:25.782Z,77.08
2023-08-15T02:57:28.385Z,77.07
2023-08-15T02:58:30.967Z,77.21
2023-08-15T02:59:33.588Z,77.28
2023-08-15T03:00:37.048Z,77.28
2023-08-15T03:01:39.738Z,77.31
2023-08-15T03:02:42.417Z,77.36
2023-08-15T03:03:45.182Z,77.29
2023-08-15T03:04:47.817Z,77.32
2023-08-15T03:05:50.411Z,77.37
2023-08-15T03:06:53.058Z,77.44
2023-08-15T03:07:55.697Z,77.51
2023-08-15T03:08:58.769Z,77.55
2023-08-15T03:10:01.418Z,77.55
2023-08-15T03:11:04.016Z,77.56
2023-08-15T03:12:06.703Z,77.57
2023-08-15T03:13:09.343Z,77.56
2023-08-15T03:14:11.976Z,77.54
2023-08-15T03:15:14.573Z,77.67
2023-08-15T03:16:17.209Z,77.72
2023-08-15T03:17:20.759Z,77.78
2023-08-15T03:18:23.662Z,77.85
2023-08-15T03:19:26.310Z,77.91
2023-08-15T03:20:30.708Z,77.84
2023-08-15T03:21:33.325Z,77.83
2023-08-15T03:22:35.950Z,77.88
2023-08-15T03:23:38.661Z,77.90
2023-08-15T03:24:41.755Z,77.94
2023-08-15T03:25:44.391Z,77.98
2023-08-15T03:26:47.066Z,78.04
2023-08-15T03:27:49.684Z,78.03
2023-08-15T03:28:53.490Z,78.09
2023-08-15T03:29:56.157Z,78.13
2023-08-15T03:30:58.819Z,78.10
2023-08-15T03:32:01.459Z,77.93
2023-08-15T03:33:04.353Z,77.98
2023-08-15T03:34:07.053Z,78.04
2023-08-15T03:35:09.696Z,78.00
2023-08-15T03:36:12.347Z,78.08
2023-08-15T03:37:14.972Z,78.13
2023-08-15T03:38:19.773Z,78.16
2023-08-15T03:39:22.419Z,78.12
2023-08-15T03:40:25.052Z,78.17
2023-08-15T03:41:27.648Z,78.19
2023-08-15T03:42:30.269Z,78.18
2023-08-15T03:43:33.933Z,78.30
2023-08-15T03:44:36.596Z,78.41
2023-08-15T03:45:40.019Z,78.47
2023-08-15T03:46:42.669Z,78.47
2023-08-15T03:47:45.346Z,78.49
2023-08-15T03:48:48.253Z,78.58
2023-08-15T03:49:50.897Z,78.61
2023-08-15T03:50:55.832Z,78.60
2023-08-15T03:51:58.457Z,78.60
2023-08-15T03:53:01.710Z,78.61
2023-08-15T03:54:04.600Z,78.64
2023-08-15T03:55:07.439Z,78.63
2023-08-15T03:56:10.032Z,78.63
2023-08-15T03:57:12.682Z,78.64
2023-08-15T03:58:15.309Z,78.67
2023-08-15T03:59:17.979Z,78.72
2023-08-15T04:00:20.670Z,78.76
2023-08-15T04:01:23.319Z,78.81
2023-08-15T04:02:25.997Z,78.89
2023-08-15T04:03:28.800Z,78.91
2023-08-15T04:04:31.465Z,78.93
2023-08-15T04:05:34.055Z,78.94
2023-08-15T04:06:36.671Z,78.97
2023-08-15T04:07:40.201Z,78.98
2023-08-15T04:08:42.869Z,78.63
2023-08-15T04:09:45.540Z,78.62
2023-08-15T04:10:48.571Z,78.38
2023-08-15T04:11:51.182Z,78.53
2023-08-15T04:12:53.793Z,78.67
2023-08-15T04:13:56.425Z,78.63
2023-08-15T04:14:59.079Z,78.51
2023-08-15T04:16:01.724Z,78.30
2023-08-15T04:17:06.513Z,78.42
2023-08-15T04:18:10.334Z,78.25
2023-08-15T04:19:13.012Z,78.34
2023-08-15T04:20:15.644Z,78.07
2023-08-15T04:21:18.647Z,78.00
2023-08-15T04:22:21.257Z,77.60
2023-08-15T04:23:23.901Z,76.96
2023-08-15T04:24:26.511Z,76.96
2023-08-15T04:25:31.706Z,77.13
2023-08-15T04:26:34.550Z,76.71
2023-08-15T04:27:38.336Z,76.84
2023-08-15T04:28:40.974Z,76.96
2023-08-15T04:29:44.200Z,76.91
2023-08-15T04:30:46.818Z,76.92
2023-08-15T04:31:49.546Z,76.85
2023-08-15T04:32:52.206Z,76.90
2023-08-15T04:33:54.836Z,76.93
2023-08-15T04:34:58.258Z,76.78
2023-08-15T04:36:00.990Z,76.74
2023-08-15T04:37:03.649Z,76.70
2023-08-15T04:38:06.469Z,76.81
2023-08-15T04:39:09.097Z,76.95
2023-08-15T04:40:14.076Z,77.01
2023-08-15T04:41:18.491Z,77.10
2023-08-15T04:42:21.667Z,77.20
2023-08-15T04:43:24.264Z,77.20
2023-08-15T04:44:26.896Z,77.26
2023-08-15T04:45:29.558Z,77.10
2023-08-15T04:46:32.233Z,77.23
2023-08-15T04:47:35.365Z,77.45
2023-08-15T04:48:38.014Z,77.60
2023-08-15T04:49:40.619Z,77.56
2023-08-15T04:50:43.246Z,77.55
2023-08-15T04:51:45.850Z,77.53
2023-08-15T04:52:48.784Z,77.50
2023-08-15T04:53:51.417Z,77.48
2023-08-15T04:54:54.114Z,77.37
2023-08-15T04:55:56.798Z,77.24
2023-08-15T04:56:59.480Z,76.71
2023-08-15T04:58:02.227Z,76.58
2023-08-15T04:59:04.930Z,76.39
2023-08-15T05:00:10.061Z,76.11
2023-08-15T05:01:13.107Z,75.62
2023-08-15T05:02:15.836Z,75.37
2023-08-15T05:03:18.460Z,74.88
2023-08-15T05:04:21.050Z,74.14
2023-08-15T05:05:24.837Z,73.54
2023-08-15T05:06:27.509Z,72.75
2023-08-15T05:07:30.159Z,72.19
2023-08-15T05:08:34.889Z,71.32
2023-08-15T05:09:38.477Z,70.48
2023-08-15T05:10:41.118Z,69.96
2023-08-15T05:11:47.081Z,69.40
2023-08-15T05:12:49.722Z,68.44
2023-08-15T05:13:52.379Z,68.28
2023-08-15T05:14:55.006Z,67.53
2023-08-15T05:15:57.695Z,67.07
2023-08-15T05:17:00.325Z,65.81
2023-08-15T05:18:03.110Z,64.96
2023-08-15T05:19:05.795Z,64.77
2023-08-15T05:20:09.974Z,64.38
2023-08-15T05:21:12.557Z,63.69
2023-08-15T05:22:15.177Z,63.25
2023-08-15T05:23:17.809Z,62.46
2023-08-15T05:24:21.259Z,62.28
2023-08-15T05:25:23.932Z,61.86
2023-08-15T05:26:26.540Z,61.41
2023-08-15T05:27:29.196Z,61.17
2023-08-15T05:28:31.828Z,60.99
2023-08-15T05:29:34.467Z,60.50
2023-08-15T05:30:37.302Z,60.58
2023-08-15T05:31:39.928Z,59.94
2023-08-15T05:32:42.558Z,59.76
2023-08-15T05:33:45.217Z,59.05
2023-08-15T05:34:47.807Z,58.94
2023-08-15T05:35:50.513Z,58.66
2023-08-15T05:36:53.154Z,58.76
2023-08-15T05:37:55.978Z,58.35
2023-08-15T05:38:58.702Z,57.82
2023-08-15T05:40:04.246Z,57.65
2023-08-15T05:41:07.538Z,57.65
2023-08-15T05:42:10.139Z,57.40
2023-08-15T05:43:12.740Z,56.96
2023-08-15T05:44:15.335Z,57.04
2023-08-15T05:45:18.070Z,57.06
2023-08-15T05:46:20.734Z,56.91
2023-08-15T05:47:23.567Z,56.60
2023-08-15T05:48:26.306Z,56.26
2023-08-15T05:49:28.938Z,56.30
2023-08-15T05:50:31.602Z,55.64
2023-08-15T05:51:34.210Z,55.20
2023-08-15T05:52:36.959Z,55.11
2023-08-15T05:53:39.579Z,55.02
2023-08-15T05:54:42.301Z,55.28
2023-08-15T05:55:44.888Z,54.60
2023-08-15T05:56:47.536Z,54.48
2023-08-15T05:57:50.133Z,54.38
2023-08-15T05:58:52.731Z,54.27
2023-08-15T05:59:55.391Z,53.85
2023-08-15T06:00:58.006Z,53.65
2023-08-15T06:02:00.652Z,53.47
2023-08-15T06:03:03.396Z,53.28
2023-08-15T06:04:06.265Z,52.83
2023-08-15T06:05:09.070Z,52.78
2023-08-15T06:06:11.725Z,52.55
2023-08-15T06:07:14.403Z,52.24
2023-08-15T06:08:17.014Z,52.23
2023-08-15T06:09:19.677Z,52.32
2023-08-15T06:10:22.350Z,52.36
2023-08-15T06:11:24.973Z,52.33
2023-08-15T06:12:27.606Z,52.35
2023-08-15T06:13:30.356Z,52.36
2023-08-15T06:14:33.570Z,52.26
2023-08-15T06:15:36.495Z,51.65
2023-08-15T06:16:39.188Z,52.13
2023-08-15T06:17:43.230Z,51.93
2023-08-15T06:18:45.878Z,51.78
2023-08-15T06:19:48.510Z,51.57
2023-08-15T06:20:51.178Z,51.42
2023-08-15T06:21:53.789Z,51.13
2023-08-15T06:22:56.608Z,50.62
2023-08-15T06:23:59.247Z,50.98
2023-08-15T06:25:01.820Z,51.24
2023-08-15T06:26:04.961Z,50.94
2023-08-15T06:27:07.614Z,50.72
2023-08-15T06:28:10.502Z,50.55
2023-08-15T06:29:13.178Z,50.52
2023-08-15T06:30:15.744Z,50.81
2023-08-15T06:31:18.449Z,50.80
2023-08-15T06:32:27.922Z,50.86
2023-08-15T06:33:30.524Z,50.69
2023-08-15T06:34:33.175Z,50.74
2023-08-15T06:35:35.805Z,50.65
2023-08-15T06:36:38.455Z,50.50
2023-08-15T06:37:41.076Z,50.14
2023-08-15T06:38:43.713Z,50.31
2023-08-15T06:39:46.350Z,49.63
2023-08-15T06:40:49.504Z,49.53
2023-08-15T06:41:52.121Z,49.71
2023-08-15T06:42:54.704Z,49.50
2023-08-15T06:43:57.294Z,49.34
2023-08-15T06:45:10.165Z,49.60
2023-08-15T06:46:12.914Z,49.25
2023-08-15T06:47:15.554Z,49.20
2023-08-15T06:48:18.206Z,49.26
2023-08-15T06:49:20.825Z,48.07
2023-08-15T06:50:23.559Z,48.42
2023-08-15T06:51:26.166Z,48.55
2023-08-15T06:52:28.849Z,48.37
2023-08-15T06:53:34.821Z,48.65
2023-08-15T06:54:37.648Z,48.76
2023-08-15T06:55:40.376Z,49.20
2023-08-15T06:56:43.248Z,49.97
2023-08-15T06:57:45.850Z,49.73
2023-08-15T06:58:48.426Z,49.49
2023-08-15T06:59:51.009Z,48.90
2023-08-15T07:00:54.052Z,49.34
2023-08-15T07:01:56.631Z,49.52
2023-08-15T07:02:59.322Z,50.11
2023-08-15T07:04:02.254Z,50.44
2023-08-15T07:05:05.577Z,50.27
2023-08-15T07:06:08.289Z,49.91
2023-08-15T07:07:10.901Z,50.64
2023-08-15T07:08:17.363Z,50.56
2023-08-15T07:09:19.990Z,50.95
2023-08-15T07:10:22.641Z,50.21
2023-08-15T07:11:25.437Z,50.58
2023-08-15T07:12:28.056Z,50.43
2023-08-15T07:13:30.746Z,50.63
2023-08-15T07:14:34.062Z,50.60
2023-08-15T07:15:37.018Z,50.85
2023-08-15T07:16:39.648Z,50.53
2023-08-15T07:17:42.680Z,50.36
2023-08-15T07:18:45.408Z,50.75
2023-08-15T07:19:48.004Z,51.02
2023-08-15T07:20:52.120Z,50.92
2023-08-15T07:21:54.848Z,50.54
2023-08-15T07:22:57.465Z,51.02
2023-08-15T07:24:00.104Z,51.40
2023-08-15T07:25:03.054Z,52.19
2023-08-15T07:26:05.674Z,52.20
2023-08-15T07:27:08.749Z,51.92
2023-08-15T07:28:11.775Z,51.37
2023-08-15T07:29:14.416Z,51.50
2023-08-15T07:30:17.276Z,51.74
2023-08-15T07:31:19.915Z,52.44
2023-08-15T07:32:22.882Z,52.31
2023-08-15T07:33:25.710Z,52.60
2023-08-15T07:34:28.383Z,52.04
2023-08-15T07:35:30.981Z,52.04
2023-08-15T07:36:33.622Z,51.99
2023-08-15T07:37:36.242Z,51.83
2023-08-15T07:38:38.834Z,51.60
2023-08-15T07:39:41.605Z,51.89
2023-08-15T07:40:45.221Z,51.33
2023-08-15T07:41:47.836Z,50.62
2023-08-15T07:42:51.219Z,50.25
2023-08-15T07:43:53.804Z,50.80
2023-08-15T07:44:56.420Z,51.17
2023-08-15T07:45:59.792Z,50.94
2023-08-15T07:47:03.173Z,50.54
2023-08-15T07:48:06.527Z,49.80
2023-08-15T07:49:09.221Z,49.10
2023-08-15T07:50:17.178Z,49.40
2023-08-15T07:51:19.816Z,49.62
2023-08-15T07:52:22.439Z,49.91
2023-08-15T07:53:25.977Z,50.43
2023-08-15T07:54:28.713Z,50.23
2023-08-15T07:55:33.643Z,50.66
2023-08-15T07:56:36.273Z,50.54
2023-08-15T07:57:39.371Z,50.78
2023-08-15T07:58:42.003Z,50.75
2023-08-15T07:59:44.626Z,50.70
2023-08-15T08:00:47.258Z,50.56
2023-08-15T08:01:49.901Z,49.74
2023-08-15T08:02:53.647Z,49.76
2023-08-15T08:03:57.076Z,49.71
2023-08-15T08:04:59.811Z,49.62
2023-08-15T08:06:05.774Z,49.07
2023-08-15T08:07:11.082Z,49.59
2023-08-15T08:08:16.774Z,49.81
2023-08-15T08:09:19.494Z,49.70
2023-08-15T08:10:22.078Z,49.69
2023-08-15T08:11:24.864Z,49.62
2023-08-15T08:12:28.869Z,49.07
2023-08-15T08:13:31.450Z,49.13
2023-08-15T08:14:35.523Z,49.00
2023-08-15T08:15:42.044Z,48.82
2023-08-15T08:16:45.103Z,48.17
2023-08-15T08:17:47.800Z,47.69
2023-08-15T08:18:50.372Z,47.99
2023-08-15T08:19:52.949Z,48.05
2023-08-15T08:20:56.519Z,47.99
2023-08-15T08:21:59.151Z,47.98
2023-08-15T08:23:01.725Z,48.79
2023-08-15T08:24:05.200Z,48.73
2023-08-15T08:25:14.848Z,48.79
2023-08-15T08:26:18.351Z,49.24
2023-08-15T08:27:20.986Z,48.47
2023-08-15T08:28:23.602Z,48.66
2023-08-15T08:29:26.204Z,48.47
2023-08-15T08:30:30.169Z,48.14
2023-08-15T08:31:34.146Z,48.54
2023-08-15T08:32:36.913Z,48.40
2023-08-15T08:33:39.496Z,47.53
2023-08-15T08:34:42.764Z,47.96
2023-08-15T08:35:45.415Z,48.91
2023-08-15T08:36:48.175Z,48.79
2023-08-15T08:37:50.962Z,48.96
2023-08-15T08:38:53.642Z,48.86
2023-08-15T08:39:56.315Z,48.58
2023-08-15T08:40:58.928Z,48.30
2023-08-15T08:42:01.997Z,48.02
2023-08-15T08:43:05.040Z,48.76
2023-08-15T08:44:07.675Z,48.48
2023-08-15T08:45:11.500Z,47.97
2023-08-15T08:46:14.444Z,47.83
2023-08-15T08:47:20.376Z,48.21
2023-08-15T08:48:23.566Z,47.45
2023-08-15T08:49:28.672Z,45.71
2023-08-15T08:50:32.266Z,45.69
2023-08-15T08:51:35.479Z,46.53
2023-08-15T08:52:42.559Z,46.90
2023-08-15T08:53:45.210Z,47.17
2023-08-15T08:55:57.255Z,46.69
2023-08-15T08:57:00.803Z,46.88
2023-08-15T08:58:05.094Z,46.85
2023-08-15T08:59:11.983Z,46.80
2023-08-15T09:00:16.103Z,46.45
2023-08-15T09:01:19.218Z,46.63
2023-08-15T09:02:23.781Z,46.87
2023-08-15T09:03:26.567Z,47.44
2023-08-15T09:04:29.225Z,47.27
2023-08-15T09:05:31.851Z,46.99
2023-08-15T09:06:34.434Z,46.27
2023-08-15T09:07:37.874Z,46.38
2023-08-15T09:08:41.258Z,46.20
2023-08-15T09:09:44.693Z,45.15
2023-08-15T09:10:47.281Z,45.20
2023-08-15T09:11:51.417Z,44.91
2023-08-15T09:12:59.505Z,45.01
2023-08-15T09:14:06.952Z,45.22
2023-08-15T09:15:11.190Z,45.45
2023-08-15T09:16:14.045Z,45.43
2023-08-15T09:17:24.985Z,45.91
2023-08-15T09:18:28.016Z,46.12
2023-08-15T09:19:30.658Z,46.28
2023-08-15T09:20:33.714Z,46.13
2023-08-15T09:21:36.353Z,45.95
2023-08-15T09:22:48.168Z,45.35
2023-08-15T09:23:52.969Z,45.30
2023-08-15T09:24:55.555Z,44.74
2023-08-15T09:25:58.267Z,44.26
2023-08-15T09:27:07.254Z,44.11
2023-08-15T09:28:09.892Z,45.12
2023-08-15T09:29:13.735Z,45.44
2023-08-15T09:30:18.455Z,44.91
2023-08-15T09:31:21.246Z,44.65
2023-08-15T09:32:23.887Z,44.41
2023-08-15T09:33:26.506Z,44.52
2023-08-15T09:34:29.185Z,44.83
2023-08-15T09:35:35.431Z,44.94
2023-08-15T09:36:40.230Z,44.61
2023-08-15T09:37:48.159Z,44.78
2023-08-15T09:38:57.579Z,43.91
2023-08-15T09:40:00.539Z,43.41
2023-08-15T09:41:03.785Z,43.22
2023-08-15T09:42:06.953Z,42.90
2023-08-15T09:43:15.607Z,42.35
2023-08-15T09:44:34.586Z,43.00
2023-08-15T09:45:38.426Z,43.19
2023-08-15T09:46:43.281Z,42.63
2023-08-15T09:47:46.651Z,42.60
2023-08-15T09:48:50.543Z,42.48
2023-08-15T09:49:54.368Z,42.62
2023-08-15T09:50:58.017Z,42.96
2023-08-15T09:52:03.635Z,43.65
2023-08-15T09:53:06.371Z,43.51
2023-08-15T09:54:09.638Z,42.70
2023-08-15T09:55:14.406Z,42.82
2023-08-15T09:56:19.209Z,42.61
2023-08-15T09:57:22.389Z,42.28
2023-08-15T09:58:25.175Z,42.46
2023-08-15T09:59:27.781Z,41.72
2023-08-15T10:00:31.268Z,41.13
2023-08-15T10:01:34.742Z,41.48
2023-08-15T10:02:44.147Z,42.08
2023-08-15T10:03:47.775Z,42.50
2023-08-15T10:05:07.599Z,41.89
2023-08-15T10:06:14.145Z,41.96
2023-08-15T10:07:17.938Z,41.14
2023-08-15T10:08:21.730Z,40.88
2023-08-15T10:09:26.355Z,41.31
2023-08-15T10:10:31.640Z,41.12
2023-08-15T10:11:38.044Z,41.65
2023-08-15T10:12:41.837Z,42.24
2023-08-15T10:13:46.422Z,42.49
2023-08-15T10:14:49.950Z,42.94
2023-08-15T10:15:54.353Z,42.67
2023-08-15T10:16:57.258Z,41.16
2023-08-15T10:18:00.241Z,40.54
2023-08-15T10:19:03.278Z,39.77
2023-08-15T10:20:07.704Z,39.68
2023-08-15T10:21:10.473Z,39.55
2023-08-15T10:22:19.109Z,39.32
2023-08-15T10:23:25.505Z,39.31
2023-08-15T10:24:30.578Z,39.76
2023-08-15T10:25:36.471Z,40.26
2023-08-15T10:26:39.925Z,41.15
2023-08-15T10:27:47.402Z,41.48
2023-08-15T10:28:50.499Z,41.51
2023-08-15T10:30:00.032Z,41.47
2023-08-15T10:31:02.836Z,42.22
2023-08-15T10:32:06.340Z,42.77
2023-08-15T10:33:15.016Z,41.93
2023-08-15T10:34:19.308Z,40.78
2023-08-15T10:35:32.364Z,40.19
2023-08-15T10:36:35.889Z,39.58
2023-08-15T10:37:40.226Z,39.89
2023-08-15T10:38:45.371Z,39.81
2023-08-15T10:40:12.483Z,39.97
2023-08-15T10:41:16.625Z,40.51
2023-08-15T10:42:19.291Z,40.65
2023-08-15T10:43:26.308Z,38.67
2023-08-15T10:44:28.938Z,38.74
2023-08-15T10:45:32.503Z,38.65
2023-08-15T10:46:36.851Z,38.71
2023-08-15T10:47:47.103Z,39.63
2023-08-15T10:49:58.413Z,37.60
2023-08-15T10:51:00.996Z,37.27
2023-08-15T10:52:03.711Z,36.79
2023-08-15T10:53:07.191Z,36.59
2023-08-15T10:54:17.740Z,36.69
2023-08-15T10:55:20.373Z,37.23
2023-08-15T10:56:25.239Z,37.57
2023-08-15T10:57:28.194Z,38.44
2023-08-15T10:58:31.705Z,38.49
2023-08-15T10:59:37.341Z,37.69
2023-08-15T11:00:41.559Z,37.45
2023-08-15T11:01:46.241Z,37.87
2023-08-15T11:02:49.365Z,38.07
2023-08-15T11:03:53.877Z,38.10
2023-08-15T11:04:56.537Z,37.54
2023-08-15T11:06:14.850Z,37.72
2023-08-15T11:07:27.560Z,38.35
2023-08-15T11:08:30.163Z,38.32
2023-08-15T11:09:32.989Z,38.43
2023-08-15T11:10:35.708Z,38.59
2023-08-15T11:11:38.335Z,38.90
2023-08-15T11:12:50.924Z,39.09
2023-08-15T11:13:55.245Z,39.10
2023-08-15T11:14:58.229Z,38.85
2023-08-15T11:16:00.915Z,38.67
2023-08-15T11:17:03.654Z,38.43
2023-08-15T11:18:06.335Z,38.52
2023-08-15T11:19:09.094Z,38.42
2023-08-15T11:20:12.064Z,38.37
2023-08-15T11:21:15.984Z,38.10
2023-08-15T11:22:18.616Z,38.30
2023-08-15T11:23:22.466Z,38.47
2023-08-15T11:24:25.053Z,38.12
2023-08-15T11:25:27.692Z,38.64
2023-08-15T11:26:30.459Z,39.18
2023-08-15T11:27:33.090Z,38.32
2023-08-15T11:28:36.488Z,38.30
2023-08-15T11:29:39.076Z,37.77
2023-08-15T11:30:42.340Z,37.38
2023-08-15T11:31:45.251Z,36.73
2023-08-15T11:32:47.907Z,37.23
2023-08-15T11:33:52.836Z,37.36
2023-08-15T11:34:56.963Z,37.62
2023-08-15T11:36:01.231Z,38.13
2023-08-15T11:37:03.806Z,38.28
2023-08-15T11:38:11.401Z,38.84
2023-08-15T11:39:14.352Z,38.46
2023-08-15T11:40:17.156Z,37.72
2023-08-15T11:41:19.923Z,38.13
2023-08-15T11:42:23.288Z,37.13
2023-08-15T11:43:30.301Z,37.06
2023-08-15T11:44:32.925Z,37.67
2023-08-15T11:45:35.673Z,37.87
2023-08-15T11:46:53.060Z,36.64
2023-08-15T11:48:03.984Z,37.23
2023-08-15T11:49:06.643Z,37.00
2023-08-15T11:50:10.891Z,36.99
2023-08-15T11:51:20.908Z,36.64
2023-08-15T11:52:23.902Z,37.21
2023-08-15T11:53:27.118Z,37.43
2023-08-15T11:54:29.757Z,37.35
2023-08-15T11:55:34.568Z,37.46
2023-08-15T11:56:53.254Z,37.48
2023-08-15T11:57:56.048Z,37.63
2023-08-15T11:59:01.593Z,38.36
2023-08-15T12:01:13.349Z,38.66
2023-08-15T12:02:15.997Z,39.47
2023-08-15T12:03:18.733Z,39.64
2023-08-15T12:04:21.380Z,39.53
2023-08-15T12:05:24.035Z,39.67
2023-08-15T12:06:27.188Z,38.67
2023-08-15T12:07:31.741Z,39.74
2023-08-15T12:08:34.480Z,39.49
2023-08-15T12:09:37.285Z,39.12
2023-08-15T12:10:42.042Z,39.28
2023-08-15T12:11:45.094Z,39.77
2023-08-15T12:12:48.718Z,39.28
2023-08-15T12:13:51.406Z,39.17
2023-08-15T12:14:54.000Z,38.71
2023-08-15T12:15:56.657Z,38.60
2023-08-15T12:16:59.257Z,38.71
2023-08-15T12:18:01.896Z,38.73
2023-08-15T12:19:04.523Z,38.60
2023-08-15T12:20:17.316Z,38.37
2023-08-15T12:21:19.899Z,38.91
2023-08-15T12:22:22.681Z,38.50
2023-08-15T12:23:28.624Z,38.59
2023-08-15T12:24:31.944Z,39.04
2023-08-15T12:25:34.558Z,38.25
2023-08-15T12:26:37.194Z,39.24
2023-08-15T12:27:39.804Z,38.76
2023-08-15T12:28:42.532Z,38.47
2023-08-15T12:30:12.984Z,37.59
2023-08-15T12:31:07.940Z,36.95
2023-08-15T12:32:10.605Z,37.28
2023-08-15T12:33:16.068Z,37.38
2023-08-15T12:34:23.754Z,37.50
2023-08-15T12:35:26.377Z,37.56
2023-08-15T12:36:29.006Z,37.27
2023-08-15T12:37:31.965Z,37.32
2023-08-15T12:38:34.532Z,37.71
2023-08-15T12:40:30.451Z,37.59
2023-08-15T12:41:34.057Z,37.51
2023-08-15T12:42:36.679Z,37.37
2023-08-15T12:43:39.541Z,37.56
2023-08-15T12:44:43.363Z,37.70
2023-08-15T12:45:46.569Z,37.80
2023-08-15T12:46:49.320Z,38.01
2023-08-15T12:47:52.024Z,37.92
2023-08-15T12:48:57.591Z,38.03
2023-08-15T12:50:00.685Z,38.23
2023-08-15T12:51:03.251Z,38.35
2023-08-15T12:52:07.450Z,38.25
2023-08-15T12:53:10.681Z,38.15
2023-08-15T12:54:13.313Z,38.76
2023-08-15T12:55:16.015Z,39.25
2023-08-15T12:56:19.173Z,38.54
2023-08-15T12:57:21.813Z,37.73
2023-08-15T12:58:24.438Z,38.05
2023-08-15T12:59:27.398Z,38.53
2023-08-15T13:00:30.926Z,38.28
2023-08-15T13:01:33.820Z,37.80
2023-08-15T13:02:37.040Z,37.51
2023-08-15T13:03:39.627Z,36.90
2023-08-15T13:04:42.248Z,36.80
2023-08-15T13:05:44.839Z,36.99
2023-08-15T13:06:47.425Z,37.39
2023-08-15T13:07:51.158Z,37.76
2023-08-15T13:08:53.802Z,37.80
2023-08-15T13:09:56.418Z,37.69
2023-08-15T13:10:59.056Z,38.19
2023-08-15T13:12:02.514Z,37.75
2023-08-15T13:13:05.275Z,38.08
2023-08-15T13:14:07.915Z,38.49
2023-08-15T13:15:12.448Z,38.35
2023-08-15T13:16:15.184Z,38.50
2023-08-15T13:17:17.812Z,38.50
2023-08-15T13:18:20.500Z,38.53
2023-08-15T13:19:23.127Z,38.10
2023-08-15T13:20:26.013Z,37.89
2023-08-15T13:21:31.590Z,38.15
2023-08-15T13:22:34.228Z,38.39
2023-08-15T13:23:36.855Z,38.42
2023-08-15T13:24:39.515Z,38.16
2023-08-15T13:25:42.180Z,38.16
2023-08-15T13:26:44.761Z,37.99
2023-08-15T13:27:47.363Z,37.78
2023-08-15T13:28:50.117Z,37.82
2023-08-15T13:29:52.726Z,37.47
2023-08-15T13:30:55.419Z,38.13
2023-08-15T13:31:58.097Z,37.69
2023-08-15T13:33:01.124Z,37.59
2023-08-15T13:34:03.979Z,38.09
2023-08-15T13:35:06.731Z,38.05
2023-08-15T13:36:10.404Z,38.31
2023-08-15T13:37:12.962Z,38.60
2023-08-15T13:38:15.561Z,38.20
2023-08-15T13:39:18.210Z,38.05
2023-08-15T13:40:20.797Z,38.18
2023-08-15T13:41:23.753Z,37.59
2023-08-15T13:42:37.611Z,38.31
2023-08-15T13:43:42.198Z,38.45
2023-08-15T13:44:44.822Z,38.53